createdAt,value
2022-08-02T00:00:34.349Z,46.23
2022-08-02T00:03:00.976Z,46.28
2022-08-02T00:05:27.636Z,45.51
2022-08-02T00:07:55.623Z,46.00
2022-08-02T00:10:22.352Z,46.38
2022-08-02T00:12:48.959Z,46.12
2022-08-02T00:15:15.767Z,46.18
2022-08-02T00:17:43.581Z,45.65
2022-08-02T00:20:10.869Z,45.85
2022-08-02T00:22:37.668Z,45.42
2022-08-02T00:25:04.832Z,46.13
2022-08-02T00:27:31.593Z,45.74
2022-08-02T00:29:58.215Z,45.67
2022-08-02T00:32:24.982Z,45.26
2022-08-02T00:34:52.144Z,45.46
2022-08-02T00:37:18.780Z,45.23
2022-08-02T00:39:45.823Z,44.80
2022-08-02T00:42:15.742Z,44.12
2022-08-02T00:44:43.283Z,43.31
2022-08-02T00:47:10.097Z,42.69
2022-08-02T00:49:37.511Z,43.06
2022-08-02T00:52:04.774Z,42.54
2022-08-02T00:54:31.424Z,42.79
2022-08-02T00:56:58.107Z,42.93
2022-08-02T00:59:24.669Z,42.87
2022-08-02T01:01:56.176Z,43.02
2022-08-02T01:04:31.247Z,43.02
2022-08-02T01:07:00.039Z,42.75
2022-08-02T01:09:26.808Z,42.82
2022-08-02T01:11:53.579Z,42.60
2022-08-02T01:14:22.938Z,42.39
2022-08-02T01:17:21.880Z,42.87
2022-08-02T01:20:03.911Z,42.60
2022-08-02T01:23:01.085Z,42.75
2022-08-02T01:25:45.245Z,42.63
2022-08-02T01:28:43.550Z,42.44
2022-08-02T01:31:22.339Z,42.39
2022-08-02T01:34:13.655Z,42.32
2022-08-02T01:36:47.081Z,42.54
2022-08-02T01:39:27.349Z,42.57
2022-08-02T01:42:00.994Z,43.43
2022-08-02T01:44:31.943Z,43.58
2022-08-02T01:47:02.406Z,43.44
2022-08-02T01:49:32.470Z,43.21
2022-08-02T01:52:20.318Z,43.50
2022-08-02T01:55:18.616Z,43.49
2022-08-02T01:57:58.748Z,43.79
2022-08-02T02:00:28.974Z,44.46
2022-08-02T02:02:57.942Z,45.24
2022-08-02T02:05:32.313Z,46.27
2022-08-02T02:08:03.479Z,47.40
2022-08-02T02:10:33.224Z,48.33
2022-08-02T02:13:06.595Z,48.29
2022-08-02T02:15:35.162Z,48.04
2022-08-02T02:18:12.569Z,47.87
2022-08-02T02:20:41.424Z,48.24
2022-08-02T02:23:08.103Z,48.38
2022-08-02T02:25:41.645Z,49.03
2022-08-02T02:28:24.659Z,49.65
2022-08-02T02:30:55.303Z,50.35
2022-08-02T02:33:27.629Z,50.64
2022-08-02T02:35:58.129Z,50.64
2022-08-02T02:38:27.406Z,50.74
2022-08-02T02:40:56.483Z,50.81
2022-08-02T02:43:24.960Z,51.70
2022-08-02T02:45:53.464Z,51.77
2022-08-02T02:48:20.813Z,52.15
2022-08-02T02:50:48.606Z,52.39
2022-08-02T02:53:18.494Z,52.44
2022-08-02T02:56:01.899Z,52.92
2022-08-02T02:58:31.269Z,52.96
2022-08-02T03:01:16.811Z,52.37
2022-08-02T03:03:45.390Z,52.17
2022-08-02T03:06:15.597Z,51.13
2022-08-02T03:08:43.156Z,51.76
2022-08-02T03:11:11.158Z,51.61
2022-08-02T03:13:39.016Z,51.70
2022-08-02T03:16:06.275Z,51.28
2022-08-02T03:18:36.655Z,51.85
2022-08-02T03:21:14.128Z,51.83
2022-08-02T03:23:42.770Z,51.83
2022-08-02T03:26:10.131Z,51.93
2022-08-02T03:28:37.391Z,51.97
2022-08-02T03:31:04.424Z,51.57
2022-08-02T03:33:33.340Z,51.78
2022-08-02T03:36:10.695Z,51.40
2022-08-02T03:38:38.191Z,51.82
2022-08-02T03:41:06.313Z,51.56
2022-08-02T03:43:34.086Z,51.80
2022-08-02T03:46:03.534Z,51.73
2022-08-02T03:48:31.305Z,52.19
2022-08-02T03:51:02.221Z,52.26
2022-08-02T03:53:29.501Z,51.88
2022-08-02T03:55:56.198Z,52.53
2022-08-02T03:58:24.054Z,52.29
2022-08-02T04:00:52.937Z,52.24
2022-08-02T04:03:19.754Z,52.44
2022-08-02T04:06:03.186Z,52.03
2022-08-02T04:08:35.541Z,51.96
2022-08-02T04:11:22.727Z,52.29
2022-08-02T04:13:49.834Z,52.20
2022-08-02T04:16:22.549Z,52.24
2022-08-02T04:19:01.355Z,52.76
2022-08-02T04:21:51.755Z,52.77
2022-08-02T04:24:25.351Z,53.49
2022-08-02T04:29:40.242Z,53.96
2022-08-02T04:32:10.655Z,53.88
2022-08-02T04:34:37.469Z,54.14
2022-08-02T04:37:04.059Z,54.23
2022-08-02T04:39:30.841Z,53.92
2022-08-02T04:41:58.004Z,54.62
2022-08-02T04:44:25.130Z,54.17
2022-08-02T04:46:52.071Z,54.80
2022-08-02T04:49:18.902Z,54.60
2022-08-02T04:51:45.618Z,55.93
2022-08-02T04:54:12.960Z,55.15
2022-08-02T04:56:40.248Z,55.75
2022-08-02T04:59:07.745Z,54.75
2022-08-02T05:01:35.808Z,54.10
2022-08-02T05:04:03.246Z,54.60
2022-08-02T05:06:29.864Z,54.77
2022-08-02T05:08:56.523Z,54.68
2022-08-02T05:11:34.161Z,54.25
2022-08-02T05:14:01.662Z,54.20
2022-08-02T05:16:31.623Z,56.29
2022-08-02T05:19:00.189Z,58.13
2022-08-02T05:21:26.858Z,59.10
2022-08-02T05:23:53.668Z,61.54
2022-08-02T05:26:20.249Z,61.87
2022-08-02T05:28:46.885Z,62.48
2022-08-02T05:31:13.686Z,63.22
2022-08-02T05:33:41.009Z,62.90
2022-08-02T05:36:09.508Z,61.77
2022-08-02T05:38:37.626Z,62.93
2022-08-02T05:41:06.027Z,62.80
2022-08-02T05:43:33.465Z,63.00
2022-08-02T05:46:00.307Z,62.89
2022-08-02T05:48:31.702Z,60.79
2022-08-02T05:51:13.028Z,60.58
2022-08-02T05:53:51.681Z,61.46
2022-08-02T05:56:25.374Z,59.36
2022-08-02T05:59:42.292Z,62.56
2022-08-02T06:02:30.721Z,62.82
2022-08-02T06:05:21.096Z,66.61
2022-08-02T06:07:49.667Z,65.01
2022-08-02T06:10:21.678Z,64.12
2022-08-02T06:13:01.288Z,67.73
2022-08-02T06:15:28.507Z,70.45
2022-08-02T06:17:56.408Z,69.93
2022-08-02T06:20:24.176Z,69.41
2022-08-02T06:22:52.243Z,71.28
2022-08-02T06:25:50.476Z,70.29
2022-08-02T06:28:10.326Z,72.98
2022-08-02T06:30:38.991Z,74.21
2022-08-02T06:33:05.549Z,78.13
2022-08-02T06:35:40.657Z,74.18
2022-08-02T06:38:08.631Z,77.60
2022-08-02T06:41:00.548Z,74.63
2022-08-02T06:43:46.863Z,78.47
2022-08-02T06:47:10.098Z,78.01
2022-08-02T06:49:02.064Z,78.57
2022-08-02T06:51:28.806Z,81.03
2022-08-02T06:53:55.760Z,80.44
2022-08-02T06:56:22.377Z,80.50
2022-08-02T06:58:48.903Z,78.20
2022-08-02T07:01:15.537Z,78.73
2022-08-02T07:03:42.267Z,81.01
2022-08-02T07:06:09.551Z,80.94
2022-08-02T07:08:38.564Z,80.63
2022-08-02T07:11:09.384Z,80.59
2022-08-02T07:13:39.835Z,82.55
2022-08-02T07:16:07.502Z,83.42
2022-08-02T07:18:34.549Z,84.43
2022-08-02T07:21:01.259Z,82.67
2022-08-02T07:23:27.965Z,83.68
2022-08-02T07:26:02.762Z,83.74
2022-08-02T07:28:30.892Z,85.11
2022-08-02T07:30:57.549Z,81.23
2022-08-02T07:33:37.439Z,80.18
2022-08-02T07:36:07.480Z,80.35
2022-08-02T07:38:36.315Z,88.29
2022-08-02T07:41:04.644Z,85.99
2022-08-02T07:43:31.465Z,86.40
2022-08-02T07:46:00.674Z,87.86
2022-08-02T07:48:28.045Z,86.26
2022-08-02T07:50:54.713Z,84.54
2022-08-02T07:53:49.715Z,85.01
2022-08-02T07:56:08.004Z,86.51
2022-08-02T07:58:34.556Z,82.30
2022-08-02T08:01:01.257Z,82.13
2022-08-02T08:03:28.320Z,82.11
2022-08-02T08:05:54.878Z,82.56
2022-08-02T08:08:21.516Z,83.05
2022-08-02T08:10:48.083Z,80.21
2022-08-02T08:13:15.675Z,80.74
2022-08-02T08:15:50.042Z,81.54
2022-08-02T08:18:19.658Z,79.02
2022-08-02T08:20:46.279Z,83.09
2022-08-02T08:23:12.961Z,81.72
2022-08-02T08:25:41.459Z,80.01
2022-08-02T08:28:09.171Z,75.38
2022-08-02T08:30:35.947Z,67.69
2022-08-02T08:33:02.992Z,67.30
2022-08-02T08:35:44.340Z,63.91
2022-08-02T08:38:11.080Z,59.30
2022-08-02T08:40:37.954Z,56.67
2022-08-02T08:43:05.601Z,56.15
2022-08-02T08:45:32.389Z,53.22
2022-08-02T08:48:10.365Z,51.90
2022-08-02T08:50:42.399Z,52.84
2022-08-02T08:53:12.342Z,51.14
2022-08-02T08:55:40.798Z,49.25
2022-08-02T08:58:07.339Z,50.62
2022-08-02T09:00:35.883Z,50.34
2022-08-02T09:03:04.817Z,48.40
2022-08-02T09:05:31.739Z,50.24
2022-08-02T09:07:58.262Z,51.46
2022-08-02T09:10:45.314Z,44.89
2022-08-02T09:13:37.824Z,48.10
2022-08-02T09:16:14.484Z,44.91
2022-08-02T09:18:47.181Z,50.50
2022-08-02T09:21:16.101Z,46.54
2022-08-02T09:23:49.505Z,48.79
2022-08-02T09:26:21.409Z,42.72
2022-08-02T09:28:50.391Z,43.47
2022-08-02T09:31:21.850Z,42.38
2022-08-02T09:33:53.452Z,44.11
2022-08-02T09:36:20.651Z,46.90
2022-08-02T09:38:57.762Z,41.52
2022-08-02T09:41:30.157Z,46.28
2022-08-02T09:44:04.854Z,45.27
2022-08-02T09:46:41.314Z,40.55
2022-08-02T09:52:37.169Z,39.03
2022-08-02T09:55:11.607Z,40.93
2022-08-02T09:57:38.738Z,41.43
2022-08-02T10:00:14.316Z,42.63
2022-08-02T10:03:08.002Z,36.95
2022-08-02T10:05:55.593Z,37.16
2022-08-02T10:08:23.339Z,41.56
2022-08-02T10:11:00.579Z,40.28
2022-08-02T10:13:34.902Z,38.95
2022-08-02T10:16:03.830Z,38.22
2022-08-02T10:18:39.404Z,37.26
2022-08-02T10:21:14.362Z,39.62
2022-08-02T10:23:43.954Z,37.38
2022-08-02T10:26:15.015Z,40.16
2022-08-02T10:28:44.488Z,35.26
2022-08-02T10:31:14.561Z,39.83
2022-08-02T10:33:42.145Z,37.82
2022-08-02T10:36:14.567Z,36.07
2022-08-02T10:38:43.676Z,40.75
2022-08-02T10:41:42.904Z,37.47
2022-08-02T10:44:24.342Z,37.47
2022-08-02T10:46:53.411Z,38.32
2022-08-02T10:49:39.698Z,38.04
2022-08-02T10:52:08.007Z,37.91
2022-08-02T10:54:40.457Z,38.57
2022-08-02T10:57:21.275Z,38.04
2022-08-02T10:59:50.266Z,38.72
2022-08-02T11:02:35.119Z,38.08
2022-08-02T11:05:04.940Z,39.48
2022-08-02T11:07:35.415Z,40.74
2022-08-02T11:10:35.267Z,40.63
2022-08-02T11:13:12.274Z,40.63
2022-08-02T11:16:11.952Z,40.28
2022-08-02T11:24:41.018Z,39.77
2022-08-02T11:27:21.716Z,40.01
2022-08-02T11:29:49.732Z,40.41
2022-08-02T11:32:30.502Z,41.87
2022-08-02T11:34:58.950Z,40.88
2022-08-02T11:37:36.632Z,40.24
2022-08-02T11:40:19.766Z,40.20
2022-08-02T11:42:51.143Z,39.50
2022-08-02T11:45:21.348Z,39.60
2022-08-02T11:47:52.038Z,40.06
2022-08-02T11:50:29.919Z,40.41
2022-08-02T11:52:57.455Z,39.63
2022-08-02T11:55:32.296Z,39.32
2022-08-02T11:58:05.646Z,39.02
2022-08-02T12:00:32.869Z,40.37
2022-08-02T12:02:59.791Z,39.67
2022-08-02T12:08:17.082Z,39.44
2022-08-02T12:10:50.016Z,37.78
2022-08-02T12:13:16.565Z,39.52
2022-08-02T12:15:46.235Z,37.99
2022-08-02T12:18:36.885Z,39.20
2022-08-02T12:21:04.704Z,40.16
2022-08-02T12:23:31.124Z,40.10
2022-08-02T12:26:06.551Z,37.19
2022-08-02T12:28:41.134Z,36.33
2022-08-02T12:31:13.351Z,35.78
2022-08-02T12:33:53.126Z,36.16
2022-08-02T12:36:24.130Z,36.95
2022-08-02T12:38:59.382Z,38.76
2022-08-02T12:41:31.048Z,38.14
2022-08-02T12:43:58.997Z,38.57
2022-08-02T12:46:25.742Z,38.83
2022-08-02T12:49:16.683Z,36.48
2022-08-02T12:51:51.297Z,35.08
2022-08-02T12:54:38.465Z,35.00
2022-08-02T12:57:17.909Z,36.91
2022-08-02T12:59:53.685Z,36.84
2022-08-02T13:02:21.469Z,36.07
2022-08-02T13:04:49.965Z,36.43
2022-08-02T13:07:18.193Z,35.34
2022-08-02T13:09:52.111Z,36.26
2022-08-02T13:12:29.114Z,37.58
2022-08-02T13:14:55.648Z,38.04
2022-08-02T13:17:22.200Z,37.18
2022-08-02T13:19:51.882Z,37.06
2022-08-02T13:22:19.808Z,35.81
2022-08-02T13:24:56.546Z,35.68
2022-08-02T13:27:24.587Z,36.83
2022-08-02T13:29:52.146Z,36.35
2022-08-02T13:32:19.055Z,35.64
2022-08-02T13:34:45.984Z,35.52
2022-08-02T13:37:12.597Z,35.92
2022-08-02T13:39:39.296Z,35.12
2022-08-02T13:42:06.948Z,34.90
2022-08-02T13:44:34.347Z,34.26
2022-08-02T13:47:04.266Z,34.91
2022-08-02T13:49:51.058Z,32.17
2022-08-02T13:52:17.696Z,33.88
2022-08-02T13:54:44.365Z,34.83
2022-08-02T13:57:10.965Z,35.06
2022-08-02T13:59:55.955Z,34.53
2022-08-02T14:02:24.578Z,33.50
2022-08-02T14:04:51.141Z,32.65
2022-08-02T14:07:18.530Z,31.81
2022-08-02T14:09:45.127Z,33.16
2022-08-02T14:12:13.127Z,31.30
2022-08-02T14:14:40.035Z,31.38
2022-08-02T14:17:06.689Z,33.31
2022-08-02T14:19:33.297Z,30.78
2022-08-02T14:22:21.429Z,29.99
2022-08-02T14:24:46.488Z,30.87
2022-08-02T14:27:13.497Z,29.12
2022-08-02T14:29:40.092Z,32.46
2022-08-02T14:32:06.982Z,31.13
2022-08-02T14:34:44.195Z,28.94
2022-08-02T14:37:11.296Z,31.38
2022-08-02T14:39:43.269Z,29.70
2022-08-02T14:42:25.465Z,30.99
2022-08-02T14:44:52.085Z,31.19
2022-08-02T14:47:18.641Z,32.09
2022-08-02T14:49:49.851Z,31.89
2022-08-02T14:52:17.045Z,30.52
2022-08-02T14:54:43.761Z,30.92
2022-08-02T14:57:13.457Z,31.27
2022-08-02T14:59:42.198Z,31.76
2022-08-02T15:02:10.094Z,30.92
2022-08-02T15:04:42.617Z,32.07
2022-08-02T15:07:10.201Z,31.47
2022-08-02T15:09:39.727Z,31.72
2022-08-02T15:12:07.449Z,30.88
2022-08-02T15:14:34.044Z,31.93
2022-08-02T15:17:00.590Z,32.13
2022-08-02T15:19:56.306Z,31.82
2022-08-02T15:22:16.707Z,32.10
2022-08-02T15:24:46.580Z,31.48
2022-08-02T15:27:14.731Z,32.53
2022-08-02T15:29:45.830Z,31.56
2022-08-02T15:32:14.160Z,32.68
2022-08-02T15:34:41.068Z,32.21
2022-08-02T15:37:07.713Z,32.09
2022-08-02T15:39:34.340Z,32.27
2022-08-02T15:42:00.862Z,32.33
2022-08-02T15:44:27.422Z,31.71
2022-08-02T15:46:54.439Z,31.41
2022-08-02T15:49:23.494Z,32.25
2022-08-02T15:51:51.127Z,33.47
2022-08-02T15:54:18.117Z,32.72
2022-08-02T15:57:04.891Z,32.60
2022-08-02T15:59:31.540Z,32.90
2022-08-02T16:01:58.271Z,33.16
2022-08-02T16:04:24.901Z,33.52
2022-08-02T16:06:51.487Z,33.18
2022-08-02T16:09:18.059Z,32.78
2022-08-02T16:11:44.687Z,32.40
2022-08-02T16:14:11.341Z,33.14
2022-08-02T16:16:39.087Z,32.90
2022-08-02T16:19:46.350Z,33.02
2022-08-02T16:21:53.695Z,33.20
2022-08-02T16:24:21.385Z,33.66
2022-08-02T16:26:47.941Z,32.93
2022-08-02T16:29:14.753Z,32.89
2022-08-02T16:31:47.463Z,33.63
2022-08-02T16:34:13.996Z,33.63
2022-08-02T16:36:40.670Z,33.28
2022-08-02T16:40:02.790Z,33.27
2022-08-02T16:41:57.230Z,33.70
2022-08-02T16:47:13.525Z,34.14
2022-08-02T16:50:04.548Z,34.09
2022-08-02T16:52:28.003Z,34.54
2022-08-02T16:54:55.058Z,33.68
2022-08-02T16:57:21.604Z,34.38
2022-08-02T16:59:57.856Z,34.06
2022-08-02T17:02:25.679Z,33.81
2022-08-02T17:04:52.385Z,33.67
2022-08-02T17:07:19.206Z,33.86
2022-08-02T17:10:09.108Z,33.16
2022-08-02T17:12:37.330Z,33.30
2022-08-02T17:16:01.462Z,33.66
2022-08-02T17:17:52.104Z,34.07
2022-08-02T17:20:20.565Z,34.24
2022-08-02T17:22:47.467Z,34.33
2022-08-02T17:25:17.461Z,34.59
2022-08-02T17:27:44.495Z,34.64
2022-08-02T17:30:12.859Z,35.04
2022-08-02T17:32:40.106Z,34.70
2022-08-02T17:35:12.797Z,34.87
2022-08-02T17:37:42.297Z,36.08
2022-08-02T17:40:09.610Z,36.41
2022-08-02T17:42:36.420Z,36.16
2022-08-02T17:45:16.499Z,36.33
2022-08-02T17:47:43.668Z,36.55
2022-08-02T17:50:30.303Z,36.54
2022-08-02T17:52:57.268Z,37.07
2022-08-02T17:55:23.977Z,36.92
2022-08-02T17:57:57.669Z,37.00
2022-08-02T18:00:31.076Z,37.20
2022-08-02T18:02:57.613Z,37.52
2022-08-02T18:05:38.874Z,37.85
2022-08-02T18:08:07.576Z,37.92
2022-08-02T18:10:34.410Z,36.94
2022-08-02T18:13:01.141Z,38.01
2022-08-02T18:15:30.350Z,38.57
2022-08-02T18:17:59.348Z,38.30
2022-08-02T18:20:26.060Z,38.39
2022-08-02T18:22:55.514Z,37.37
2022-08-02T18:25:36.944Z,38.43
2022-08-02T18:28:08.999Z,37.89
2022-08-02T18:30:35.622Z,38.32
2022-08-02T18:33:59.086Z,38.49
2022-08-02T18:35:49.329Z,37.74
2022-08-02T18:38:16.433Z,39.13
2022-08-02T18:40:44.006Z,38.10
2022-08-02T18:43:18.347Z,37.82
2022-08-02T18:46:07.391Z,38.43
2022-08-02T18:48:32.036Z,37.85
2022-08-02T18:50:58.611Z,38.15
2022-08-02T18:53:28.295Z,39.04
2022-08-02T18:56:10.561Z,40.52
2022-08-02T18:58:48.182Z,42.29
2022-08-02T19:01:21.953Z,41.35
2022-08-02T19:04:04.385Z,43.28
2022-08-02T19:06:32.019Z,43.03
2022-08-02T19:08:59.683Z,42.50
2022-08-02T19:11:37.048Z,46.49
2022-08-02T19:14:03.943Z,45.37
2022-08-02T19:16:37.788Z,44.19
2022-08-02T19:19:06.233Z,46.36
2022-08-02T19:22:18.871Z,47.81
2022-08-02T19:24:19.399Z,46.91
2022-08-02T19:26:51.800Z,46.73
2022-08-02T19:29:43.376Z,47.19
2022-08-02T19:34:53.831Z,50.47
2022-08-02T19:37:20.685Z,49.48
2022-08-02T19:42:41.702Z,46.90
2022-08-02T19:45:20.555Z,49.22
2022-08-02T19:48:14.472Z,48.33
2022-08-02T19:50:44.029Z,47.50
2022-08-02T19:53:17.184Z,48.79
2022-08-02T19:55:58.699Z,52.36
2022-08-02T19:58:28.493Z,51.34
2022-08-02T20:00:55.053Z,49.13
2022-08-02T20:03:39.899Z,46.90
2022-08-02T20:06:08.500Z,47.82
2022-08-02T20:08:37.504Z,49.42
2022-08-02T20:11:04.317Z,47.06
2022-08-02T20:13:46.859Z,47.21
2022-08-02T20:16:28.090Z,47.09
2022-08-02T20:19:01.261Z,50.06
2022-08-02T20:21:36.179Z,48.37
2022-08-02T20:24:10.025Z,51.35
2022-08-02T20:26:39.654Z,51.33
2022-08-02T20:29:13.977Z,51.20
2022-08-02T20:31:40.619Z,52.41
2022-08-02T20:34:07.332Z,51.20
2022-08-02T20:36:33.920Z,53.20
2022-08-02T20:39:00.447Z,54.51
2022-08-02T20:41:37.048Z,52.46
2022-08-02T20:44:15.357Z,53.85
2022-08-02T20:46:43.957Z,54.55
2022-08-02T20:49:18.912Z,54.07
2022-08-02T20:51:51.726Z,55.40
2022-08-02T20:54:20.747Z,51.58
2022-08-02T20:56:48.064Z,55.13
2022-08-02T20:59:17.349Z,52.57
2022-08-02T21:01:56.766Z,56.46
2022-08-02T21:04:24.177Z,56.21
2022-08-02T21:06:51.484Z,55.65
2022-08-02T21:09:18.092Z,56.57
2022-08-02T21:11:50.969Z,52.27
2022-08-02T21:14:18.810Z,53.71
2022-08-02T21:16:45.395Z,57.55
2022-08-02T21:19:12.325Z,56.30
2022-08-02T21:21:38.918Z,56.99
2022-08-02T21:24:05.778Z,57.51
2022-08-02T21:26:33.053Z,56.65
2022-08-02T21:29:03.726Z,56.33
2022-08-02T21:31:49.284Z,55.75
2022-08-02T21:34:27.218Z,55.66
2022-08-02T21:36:54.977Z,57.72
2022-08-02T21:39:22.190Z,57.61
2022-08-02T21:41:49.478Z,56.73
2022-08-02T21:44:21.608Z,56.63
2022-08-02T21:46:51.868Z,56.14
2022-08-02T21:49:20.549Z,57.77
2022-08-02T21:51:49.245Z,57.67
2022-08-02T21:54:21.355Z,57.49
2022-08-02T21:56:50.196Z,56.58
2022-08-02T21:59:26.331Z,55.92
2022-08-02T22:01:57.564Z,56.47
2022-08-02T22:04:26.005Z,56.99
2022-08-02T22:06:52.838Z,59.18
2022-08-02T22:09:44.175Z,55.73
2022-08-02T22:12:09.965Z,56.40
2022-08-02T22:14:39.418Z,56.80
2022-08-02T22:17:13.699Z,56.64
2022-08-02T22:19:54.068Z,56.91
2022-08-02T22:22:28.416Z,55.92
2022-08-02T22:24:55.599Z,59.71
2022-08-02T22:27:23.425Z,57.84
2022-08-02T22:30:10.576Z,58.96
2022-08-02T22:33:15.355Z,58.71
2022-08-02T22:35:42.398Z,56.89
2022-08-02T22:38:16.325Z,59.71
2022-08-02T22:40:48.323Z,59.47
2022-08-02T22:43:22.884Z,56.48
2022-08-02T22:45:50.114Z,61.20
2022-08-02T22:48:16.751Z,61.59
2022-08-02T22:50:43.407Z,61.19
2022-08-02T22:53:10.063Z,61.74
2022-08-02T22:55:41.529Z,62.46
2022-08-02T22:58:08.725Z,61.85
2022-08-02T22:58:49.179Z,33.72
2022-08-02T22:58:58.524Z,47.72
2022-08-02T22:59:05.602Z,46.71
2022-08-02T23:00:35.256Z,60.83
2022-08-02T23:03:01.793Z,58.22
2022-08-02T23:05:30.181Z,57.11
2022-08-02T23:08:01.780Z,60.94
2022-08-02T23:10:28.496Z,62.49
2022-08-02T23:12:58.897Z,60.01
2022-08-02T23:15:26.640Z,60.88
2022-08-02T23:18:12.461Z,63.74
2022-08-02T23:20:39.013Z,64.25
2022-08-02T23:23:11.865Z,63.28
2022-08-02T23:25:38.630Z,63.93
2022-08-02T23:28:05.349Z,64.38
2022-08-02T23:30:31.896Z,63.79
2022-08-02T23:32:58.482Z,65.14
2022-08-02T23:35:25.287Z,64.95
2022-08-02T23:38:00.456Z,64.95
2022-08-02T23:40:40.388Z,65.23
2022-08-02T23:43:14.230Z,65.54
2022-08-02T23:45:45.783Z,65.32
2022-08-02T23:48:12.365Z,64.95
2022-08-02T23:50:39.098Z,64.87
2022-08-02T23:53:05.659Z,63.53
2022-08-02T23:55:32.232Z,64.19
2022-08-02T23:57:58.821Z,62.78
